sensor_id;sensor_type;location;lat;lon;timestamp;temperature;humidity
20594;DHT22;10455;48.732;10.266;2023-11-21T00:03:00;6.70;99.90
20594;DHT22;10455;48.732;10.266;2023-11-21T00:08:02;6.70;99.90
20594;DHT22;10455;48.732;10.266;2023-11-21T00:13:05;6.70;99.90
20594;DHT22;10455;48.732;10.266;2023-11-21T00:18:09;6.60;99.90
20594;DHT22;10455;48.732;10.266;2023-11-21T00:23:11;6.70;99.90
20594;DHT22;10455;48.732;10.266;2023-11-21T00:28:13;6.80;99.90
20594;DHT22;10455;48.732;10.266;2023-11-21T00:33:17;6.80;99.90
20594;DHT22;10455;48.732;10.266;2023-11-21T00:38:18;6.70;99.90
20594;DHT22;10455;48.732;10.266;2023-11-21T00:43:21;6.70;99.90
20594;DHT22;10455;48.732;10.266;2023-11-21T00:48:24;6.60;99.90
20594;DHT22;10455;48.732;10.266;2023-11-21T00:53:26;6.60;99.90
20594;DHT22;10455;48.732;10.266;2023-11-21T00:58:28;6.50;99.90
20594;DHT22;10455;48.732;10.266;2023-11-21T01:03:32;6.40;99.90
20594;DHT22;10455;48.732;10.266;2023-11-21T01:08:34;6.40;99.90
20594;DHT22;10455;48.732;10.266;2023-11-21T01:13:36;6.30;99.90
20594;DHT22;10455;48.732;10.266;2023-11-21T01:18:39;6.20;99.90
20594;DHT22;10455;48.732;10.266;2023-11-21T01:23:41;6.30;99.90
20594;DHT22;10455;48.732;10.266;2023-11-21T01:28:43;6.20;99.90
20594;DHT22;10455;48.732;10.266;2023-11-21T01:33:46;6.20;99.90
20594;DHT22;10455;48.732;10.266;2023-11-21T01:38:49;6.00;99.90
20594;DHT22;10455;48.732;10.266;2023-11-21T01:43:51;5.80;99.90
20594;DHT22;10455;48.732;10.266;2023-11-21T01:48:55;5.70;99.90
20594;DHT22;10455;48.732;10.266;2023-11-21T01:53:57;5.50;99.90
20594;DHT22;10455;48.732;10.266;2023-11-21T01:58:59;5.60;99.90
20594;DHT22;10455;48.732;10.266;2023-11-21T02:04:03;5.90;99.90
20594;DHT22;10455;48.732;10.266;2023-11-21T02:09:05;6.10;99.90
20594;DHT22;10455;48.732;10.266;2023-11-21T02:14:07;6.30;99.90
20594;DHT22;10455;48.732;10.266;2023-11-21T02:19:12;6.40;99.90
20594;DHT22;10455;48.732;10.266;2023-11-21T02:24:21;6.50;99.90
20594;DHT22;10455;48.732;10.266;2023-11-21T02:29:23;6.60;99.90
20594;DHT22;10455;48.732;10.266;2023-11-21T02:34:28;6.50;99.90
20594;DHT22;10455;48.732;10.266;2023-11-21T02:39:31;6.50;99.90
20594;DHT22;10455;48.732;10.266;2023-11-21T02:44:33;6.50;99.90
20594;DHT22;10455;48.732;10.266;2023-11-21T02:49:35;6.50;99.90
20594;DHT22;10455;48.732;10.266;2023-11-21T02:54:38;6.40;99.90
20594;DHT22;10455;48.732;10.266;2023-11-21T02:59:40;6.30;99.90
20594;DHT22;10455;48.732;10.266;2023-11-21T03:04:42;6.10;99.90
20594;DHT22;10455;48.732;10.266;2023-11-21T03:09:45;6.20;99.90
20594;DHT22;10455;48.732;10.266;2023-11-21T03:14:47;6.30;99.90
20594;DHT22;10455;48.732;10.266;2023-11-21T03:19:49;6.20;99.90
20594;DHT22;10455;48.732;10.266;2023-11-21T03:24:54;6.20;99.90
20594;DHT22;10455;48.732;10.266;2023-11-21T03:29:56;5.90;99.90
20594;DHT22;10455;48.732;10.266;2023-11-21T03:34:59;5.90;99.90
20594;DHT22;10455;48.732;10.266;2023-11-21T03:40:05;6.20;99.90
20594;DHT22;10455;48.732;10.266;2023-11-21T03:45:09;6.40;99.90
20594;DHT22;10455;48.732;10.266;2023-11-21T03:50:12;6.40;99.90
20594;DHT22;10455;48.732;10.266;2023-11-21T03:55:16;6.30;99.90
20594;DHT22;10455;48.732;10.266;2023-11-21T04:00:18;6.30;99.90
20594;DHT22;10455;48.732;10.266;2023-11-21T04:05:22;6.40;99.90
20594;DHT22;10455;48.732;10.266;2023-11-21T04:10:25;6.40;99.90
20594;DHT22;10455;48.732;10.266;2023-11-21T04:15:27;6.40;99.90
20594;DHT22;10455;48.732;10.266;2023-11-21T04:20:29;6.50;99.90
20594;DHT22;10455;48.732;10.266;2023-11-21T04:25:32;6.40;99.90
20594;DHT22;10455;48.732;10.266;2023-11-21T04:30:34;6.50;99.90
20594;DHT22;10455;48.732;10.266;2023-11-21T04:35:35;6.50;99.90
20594;DHT22;10455;48.732;10.266;2023-11-21T04:45:41;6.40;99.90
20594;DHT22;10455;48.732;10.266;2023-11-21T04:50:43;6.40;99.90
20594;DHT22;10455;48.732;10.266;2023-11-21T04:55:46;6.50;99.90
20594;DHT22;10455;48.732;10.266;2023-11-21T05:00:49;6.50;99.90
20594;DHT22;10455;48.732;10.266;2023-11-21T05:05:51;6.70;99.90
20594;DHT22;10455;48.732;10.266;2023-11-21T05:10:54;6.50;99.90
20594;DHT22;10455;48.732;10.266;2023-11-21T05:15:56;6.60;99.90
20594;DHT22;10455;48.732;10.266;2023-11-21T05:20:58;6.50;99.90
20594;DHT22;10455;48.732;10.266;2023-11-21T05:26:02;6.40;99.90
20594;DHT22;10455;48.732;10.266;2023-11-21T05:31:04;6.30;99.90
20594;DHT22;10455;48.732;10.266;2023-11-21T05:36:07;6.10;99.90
20594;DHT22;10455;48.732;10.266;2023-11-21T05:41:11;6.00;99.90
20594;DHT22;10455;48.732;10.266;2023-11-21T05:46:13;6.10;99.90
20594;DHT22;10455;48.732;10.266;2023-11-21T05:51:15;6.20;99.90
20594;DHT22;10455;48.732;10.266;2023-11-21T05:56:19;6.20;99.90
20594;DHT22;10455;48.732;10.266;2023-11-21T06:01:21;6.20;99.90
20594;DHT22;10455;48.732;10.266;2023-11-21T06:06:23;6.20;99.90
20594;DHT22;10455;48.732;10.266;2023-11-21T06:11:26;6.40;99.90
20594;DHT22;10455;48.732;10.266;2023-11-21T06:16:28;6.40;99.90
20594;DHT22;10455;48.732;10.266;2023-11-21T06:21:30;6.30;99.90
20594;DHT22;10455;48.732;10.266;2023-11-21T06:26:33;6.30;99.90
20594;DHT22;10455;48.732;10.266;2023-11-21T06:31:35;6.30;99.90
20594;DHT22;10455;48.732;10.266;2023-11-21T06:36:37;6.30;99.90
20594;DHT22;10455;48.732;10.266;2023-11-21T06:41:40;6.20;99.90
20594;DHT22;10455;48.732;10.266;2023-11-21T06:46:42;6.40;99.90
20594;DHT22;10455;48.732;10.266;2023-11-21T06:51:45;6.60;99.90
20594;DHT22;10455;48.732;10.266;2023-11-21T06:56:48;6.70;99.90
20594;DHT22;10455;48.732;10.266;2023-11-21T07:01:50;6.50;99.90
20594;DHT22;10455;48.732;10.266;2023-11-21T07:06:53;6.50;99.90
20594;DHT22;10455;48.732;10.266;2023-11-21T07:11:57;6.30;99.90
20594;DHT22;10455;48.732;10.266;2023-11-21T07:16:58;6.50;99.90
20594;DHT22;10455;48.732;10.266;2023-11-21T07:22:00;6.50;99.90
20594;DHT22;10455;48.732;10.266;2023-11-21T07:27:04;6.60;99.90
20594;DHT22;10455;48.732;10.266;2023-11-21T07:32:06;6.60;99.90
20594;DHT22;10455;48.732;10.266;2023-11-21T07:37:09;6.60;99.90
20594;DHT22;10455;48.732;10.266;2023-11-21T07:42:13;6.60;99.90
20594;DHT22;10455;48.732;10.266;2023-11-21T07:47:14;7.20;99.90
20594;DHT22;10455;48.732;10.266;2023-11-21T07:52:16;7.30;99.90
20594;DHT22;10455;48.732;10.266;2023-11-21T07:57:20;7.60;99.90
20594;DHT22;10455;48.732;10.266;2023-11-21T08:02:21;8.10;99.90
20594;DHT22;10455;48.732;10.266;2023-11-21T08:07:23;8.40;99.90
20594;DHT22;10455;48.732;10.266;2023-11-21T08:12:27;8.50;99.90
20594;DHT22;10455;48.732;10.266;2023-11-21T08:17:29;8.60;99.90
20594;DHT22;10455;48.732;10.266;2023-11-21T08:22:33;9.10;99.90
20594;DHT22;10455;48.732;10.266;2023-11-21T08:27:36;9.20;99.90
20594;DHT22;10455;48.732;10.266;2023-11-21T08:32:39;9.00;99.90
20594;DHT22;10455;48.732;10.266;2023-11-21T08:37:41;9.10;99.90
20594;DHT22;10455;48.732;10.266;2023-11-21T08:42:44;9.30;99.90
20594;DHT22;10455;48.732;10.266;2023-11-21T08:47:47;9.50;99.90
20594;DHT22;10455;48.732;10.266;2023-11-21T08:52:49;9.40;99.90
20594;DHT22;10455;48.732;10.266;2023-11-21T08:57:53;9.80;99.90
20594;DHT22;10455;48.732;10.266;2023-11-21T09:02:55;10.00;99.90
20594;DHT22;10455;48.732;10.266;2023-11-21T09:07:57;10.20;99.90
20594;DHT22;10455;48.732;10.266;2023-11-21T09:13:01;10.30;99.90
20594;DHT22;10455;48.732;10.266;2023-11-21T09:18:03;10.20;99.90
20594;DHT22;10455;48.732;10.266;2023-11-21T09:23:05;10.20;99.90
20594;DHT22;10455;48.732;10.266;2023-11-21T09:28:09;10.40;99.90
20594;DHT22;10455;48.732;10.266;2023-11-21T09:33:12;10.30;99.90
20594;DHT22;10455;48.732;10.266;2023-11-21T09:38:15;10.40;99.90
20594;DHT22;10455;48.732;10.266;2023-11-21T09:43:19;10.40;99.90
20594;DHT22;10455;48.732;10.266;2023-11-21T09:48:21;10.40;99.90
20594;DHT22;10455;48.732;10.266;2023-11-21T09:53:27;10.30;99.90
20594;DHT22;10455;48.732;10.266;2023-11-21T09:58:32;10.10;99.90
20594;DHT22;10455;48.732;10.266;2023-11-21T10:03:35;9.90;99.90
20594;DHT22;10455;48.732;10.266;2023-11-21T10:08:39;9.80;99.90
20594;DHT22;10455;48.732;10.266;2023-11-21T10:13:43;9.70;99.90
20594;DHT22;10455;48.732;10.266;2023-11-21T10:18:47;11.30;99.90
20594;DHT22;10455;48.732;10.266;2023-11-21T10:23:51;14.80;99.90
20594;DHT22;10455;48.732;10.266;2023-11-21T10:28:57;17.20;99.90
20594;DHT22;10455;48.732;10.266;2023-11-21T10:34:13;15.40;99.90
20594;DHT22;10455;48.732;10.266;2023-11-21T10:39:16;14.10;99.90
20594;DHT22;10455;48.732;10.266;2023-11-21T10:44:20;13.50;99.90
20594;DHT22;10455;48.732;10.266;2023-11-21T10:49:25;13.20;99.90
20594;DHT22;10455;48.732;10.266;2023-11-21T10:54:27;13.10;99.90
20594;DHT22;10455;48.732;10.266;2023-11-21T10:59:31;12.70;99.90
20594;DHT22;10455;48.732;10.266;2023-11-21T11:04:34;12.50;99.90
20594;DHT22;10455;48.732;10.266;2023-11-21T11:09:38;12.50;99.90
20594;DHT22;10455;48.732;10.266;2023-11-21T11:14:42;12.50;99.90
20594;DHT22;10455;48.732;10.266;2023-11-21T11:19:45;12.20;99.90
20594;DHT22;10455;48.732;10.266;2023-11-21T11:25:08;11.90;99.90
20594;DHT22;10455;48.732;10.266;2023-11-21T11:30:27;11.80;99.90
20594;DHT22;10455;48.732;10.266;2023-11-21T11:35:49;12.90;99.90
20594;DHT22;10455;48.732;10.266;2023-11-21T11:40:54;14.20;99.90
20594;DHT22;10455;48.732;10.266;2023-11-21T11:45:59;16.00;99.90
20594;DHT22;10455;48.732;10.266;2023-11-21T11:51:05;14.30;99.90
20594;DHT22;10455;48.732;10.266;2023-11-21T11:56:28;12.10;99.90
20594;DHT22;10455;48.732;10.266;2023-11-21T12:01:34;10.10;99.90
20594;DHT22;10455;48.732;10.266;2023-11-21T12:06:36;9.50;99.90
20594;DHT22;10455;48.732;10.266;2023-11-21T12:11:38;9.40;99.90
20594;DHT22;10455;48.732;10.266;2023-11-21T12:16:43;9.60;99.90
20594;DHT22;10455;48.732;10.266;2023-11-21T12:21:45;9.90;99.90
20594;DHT22;10455;48.732;10.266;2023-11-21T12:26:48;10.50;99.90
20594;DHT22;10455;48.732;10.266;2023-11-21T12:31:51;11.10;99.90
20594;DHT22;10455;48.732;10.266;2023-11-21T12:36:53;11.90;99.90
20594;DHT22;10455;48.732;10.266;2023-11-21T12:41:55;11.90;99.90
20594;DHT22;10455;48.732;10.266;2023-11-21T12:46:59;12.40;99.90
20594;DHT22;10455;48.732;10.266;2023-11-21T12:52:02;11.90;99.90
20594;DHT22;10455;48.732;10.266;2023-11-21T12:57:04;11.30;99.90
20594;DHT22;10455;48.732;10.266;2023-11-21T13:02:12;10.90;99.90
20594;DHT22;10455;48.732;10.266;2023-11-21T13:07:16;10.60;99.90
20594;DHT22;10455;48.732;10.266;2023-11-21T13:12:23;10.20;99.90
20594;DHT22;10455;48.732;10.266;2023-11-21T13:17:27;10.30;99.90
20594;DHT22;10455;48.732;10.266;2023-11-21T13:22:29;10.40;99.90
20594;DHT22;10455;48.732;10.266;2023-11-21T13:27:33;10.40;99.90
20594;DHT22;10455;48.732;10.266;2023-11-21T13:32:38;10.70;99.90
20594;DHT22;10455;48.732;10.266;2023-11-21T13:37:41;11.00;99.90
20594;DHT22;10455;48.732;10.266;2023-11-21T13:42:42;12.30;99.90
20594;DHT22;10455;48.732;10.266;2023-11-21T13:47:46;13.50;99.90
20594;DHT22;10455;48.732;10.266;2023-11-21T13:52:48;12.20;99.90
20594;DHT22;10455;48.732;10.266;2023-11-21T13:57:51;11.00;99.90
20594;DHT22;10455;48.732;10.266;2023-11-21T14:02:55;10.40;99.90
20594;DHT22;10455;48.732;10.266;2023-11-21T14:08:00;9.90;99.90
20594;DHT22;10455;48.732;10.266;2023-11-21T14:13:05;9.30;99.90
20594;DHT22;10455;48.732;10.266;2023-11-21T14:18:08;9.30;99.90
20594;DHT22;10455;48.732;10.266;2023-11-21T14:23:12;9.20;99.90
20594;DHT22;10455;48.732;10.266;2023-11-21T14:28:15;8.90;99.90
20594;DHT22;10455;48.732;10.266;2023-11-21T14:33:18;8.30;99.90
20594;DHT22;10455;48.732;10.266;2023-11-21T14:38:20;7.50;99.90
20594;DHT22;10455;48.732;10.266;2023-11-21T14:43:23;7.60;99.90
20594;DHT22;10455;48.732;10.266;2023-11-21T14:48:27;7.70;99.90
20594;DHT22;10455;48.732;10.266;2023-11-21T14:53:42;7.70;99.90
20594;DHT22;10455;48.732;10.266;2023-11-21T14:58:54;7.60;99.90
20594;DHT22;10455;48.732;10.266;2023-11-21T15:03:58;7.90;99.90
20594;DHT22;10455;48.732;10.266;2023-11-21T15:09:00;8.00;99.90
20594;DHT22;10455;48.732;10.266;2023-11-21T15:14:16;8.00;99.90
20594;DHT22;10455;48.732;10.266;2023-11-21T15:19:25;8.00;99.90
20594;DHT22;10455;48.732;10.266;2023-11-21T15:24:28;7.60;99.90
20594;DHT22;10455;48.732;10.266;2023-11-21T15:29:30;7.50;99.90
20594;DHT22;10455;48.732;10.266;2023-11-21T15:34:33;7.50;99.90
20594;DHT22;10455;48.732;10.266;2023-11-21T15:39:35;7.70;99.90
20594;DHT22;10455;48.732;10.266;2023-11-21T15:44:37;7.80;99.90
20594;DHT22;10455;48.732;10.266;2023-11-21T15:49:42;7.90;99.90
20594;DHT22;10455;48.732;10.266;2023-11-21T15:54:46;7.60;99.90
20594;DHT22;10455;48.732;10.266;2023-11-21T15:59:48;7.50;99.90
20594;DHT22;10455;48.732;10.266;2023-11-21T16:04:51;7.50;99.90
20594;DHT22;10455;48.732;10.266;2023-11-21T16:09:53;7.30;99.90
20594;DHT22;10455;48.732;10.266;2023-11-21T16:14:55;7.30;99.90
20594;DHT22;10455;48.732;10.266;2023-11-21T16:19:58;7.40;99.90
20594;DHT22;10455;48.732;10.266;2023-11-21T16:25:01;7.50;99.90
20594;DHT22;10455;48.732;10.266;2023-11-21T16:30:05;7.70;99.90
20594;DHT22;10455;48.732;10.266;2023-11-21T16:35:10;7.80;99.90
20594;DHT22;10455;48.732;10.266;2023-11-21T16:40:14;7.80;99.90
20594;DHT22;10455;48.732;10.266;2023-11-21T16:45:16;7.70;99.90
20594;DHT22;10455;48.732;10.266;2023-11-21T16:50:19;7.60;99.90
20594;DHT22;10455;48.732;10.266;2023-11-21T16:55:21;7.50;99.90
20594;DHT22;10455;48.732;10.266;2023-11-21T17:00:24;7.40;99.90
20594;DHT22;10455;48.732;10.266;2023-11-21T17:05:28;7.60;99.90
20594;DHT22;10455;48.732;10.266;2023-11-21T17:10:30;7.50;99.90
20594;DHT22;10455;48.732;10.266;2023-11-21T17:15:31;7.60;99.90
20594;DHT22;10455;48.732;10.266;2023-11-21T17:20:35;7.40;99.90
20594;DHT22;10455;48.732;10.266;2023-11-21T17:25:37;7.60;99.90
20594;DHT22;10455;48.732;10.266;2023-11-21T17:30:39;7.70;99.90
20594;DHT22;10455;48.732;10.266;2023-11-21T17:35:42;7.50;99.90
20594;DHT22;10455;48.732;10.266;2023-11-21T17:40:44;7.30;99.90
20594;DHT22;10455;48.732;10.266;2023-11-21T17:45:46;7.20;99.90
20594;DHT22;10455;48.732;10.266;2023-11-21T17:50:50;7.10;99.90
20594;DHT22;10455;48.732;10.266;2023-11-21T17:55:52;7.10;99.90
20594;DHT22;10455;48.732;10.266;2023-11-21T18:00:54;7.10;99.90
20594;DHT22;10455;48.732;10.266;2023-11-21T18:05:57;7.00;99.90
20594;DHT22;10455;48.732;10.266;2023-11-21T18:10:59;7.00;99.90
20594;DHT22;10455;48.732;10.266;2023-11-21T18:16:01;7.00;99.90
20594;DHT22;10455;48.732;10.266;2023-11-21T18:21:05;7.20;99.90
20594;DHT22;10455;48.732;10.266;2023-11-21T18:26:07;7.20;99.90
20594;DHT22;10455;48.732;10.266;2023-11-21T18:31:09;7.30;99.90
20594;DHT22;10455;48.732;10.266;2023-11-21T18:36:12;7.40;99.90
20594;DHT22;10455;48.732;10.266;2023-11-21T18:41:19;7.40;99.90
20594;DHT22;10455;48.732;10.266;2023-11-21T18:46:22;7.50;99.90
20594;DHT22;10455;48.732;10.266;2023-11-21T18:51:25;7.50;99.90
20594;DHT22;10455;48.732;10.266;2023-11-21T18:56:27;7.40;99.90
20594;DHT22;10455;48.732;10.266;2023-11-21T19:01:31;7.20;99.90
20594;DHT22;10455;48.732;10.266;2023-11-21T19:06:35;7.10;99.90
20594;DHT22;10455;48.732;10.266;2023-11-21T19:11:36;7.00;99.90
20594;DHT22;10455;48.732;10.266;2023-11-21T19:16:39;7.00;99.90
20594;DHT22;10455;48.732;10.266;2023-11-21T19:21:43;7.20;99.90
20594;DHT22;10455;48.732;10.266;2023-11-21T19:26:45;7.30;99.90
20594;DHT22;10455;48.732;10.266;2023-11-21T19:31:47;7.10;99.90
20594;DHT22;10455;48.732;10.266;2023-11-21T19:36:50;6.90;99.90
20594;DHT22;10455;48.732;10.266;2023-11-21T19:41:52;6.90;99.90
20594;DHT22;10455;48.732;10.266;2023-11-21T19:46:54;6.80;99.90
20594;DHT22;10455;48.732;10.266;2023-11-21T19:51:58;6.70;99.90
20594;DHT22;10455;48.732;10.266;2023-11-21T19:57:00;6.70;99.90
20594;DHT22;10455;48.732;10.266;2023-11-21T20:02:07;6.80;99.90
20594;DHT22;10455;48.732;10.266;2023-11-21T20:07:10;6.70;99.90
20594;DHT22;10455;48.732;10.266;2023-11-21T20:12:14;6.90;99.90
20594;DHT22;10455;48.732;10.266;2023-11-21T20:17:17;6.90;99.90
20594;DHT22;10455;48.732;10.266;2023-11-21T20:22:21;6.90;99.90
20594;DHT22;10455;48.732;10.266;2023-11-21T20:27:22;7.00;99.90
20594;DHT22;10455;48.732;10.266;2023-11-21T20:32:24;6.80;99.90
20594;DHT22;10455;48.732;10.266;2023-11-21T20:37:27;6.90;99.90
20594;DHT22;10455;48.732;10.266;2023-11-21T20:42:29;7.10;99.90
20594;DHT22;10455;48.732;10.266;2023-11-21T20:47:32;6.90;99.90
20594;DHT22;10455;48.732;10.266;2023-11-21T20:52:35;6.90;99.90
20594;DHT22;10455;48.732;10.266;2023-11-21T20:57:37;6.90;99.90
20594;DHT22;10455;48.732;10.266;2023-11-21T21:02:39;6.70;99.90
20594;DHT22;10455;48.732;10.266;2023-11-21T21:07:42;6.80;99.90
20594;DHT22;10455;48.732;10.266;2023-11-21T21:12:44;7.00;99.90
20594;DHT22;10455;48.732;10.266;2023-11-21T21:17:46;7.10;99.90
20594;DHT22;10455;48.732;10.266;2023-11-21T21:22:50;6.90;99.90
20594;DHT22;10455;48.732;10.266;2023-11-21T21:27:53;6.90;99.90
20594;DHT22;10455;48.732;10.266;2023-11-21T21:32:56;6.80;99.90
20594;DHT22;10455;48.732;10.266;2023-11-21T21:38:02;6.90;99.90
20594;DHT22;10455;48.732;10.266;2023-11-21T21:43:04;7.00;99.90
20594;DHT22;10455;48.732;10.266;2023-11-21T21:48:06;7.10;99.90
20594;DHT22;10455;48.732;10.266;2023-11-21T21:53:10;7.00;99.90
20594;DHT22;10455;48.732;10.266;2023-11-21T21:58:12;6.80;99.90
20594;DHT22;10455;48.732;10.266;2023-11-21T22:03:14;6.90;99.90
20594;DHT22;10455;48.732;10.266;2023-11-21T22:08:18;6.80;99.90
20594;DHT22;10455;48.732;10.266;2023-11-21T22:13:20;7.00;99.90
20594;DHT22;10455;48.732;10.266;2023-11-21T22:18:22;7.10;99.90
20594;DHT22;10455;48.732;10.266;2023-11-21T22:23:26;7.00;99.90
20594;DHT22;10455;48.732;10.266;2023-11-21T22:28:28;7.10;99.90
20594;DHT22;10455;48.732;10.266;2023-11-21T22:33:29;7.10;99.90
20594;DHT22;10455;48.732;10.266;2023-11-21T22:38:33;7.00;99.90
20594;DHT22;10455;48.732;10.266;2023-11-21T22:43:35;7.10;99.90
20594;DHT22;10455;48.732;10.266;2023-11-21T22:48:36;7.00;99.90
20594;DHT22;10455;48.732;10.266;2023-11-21T22:53:40;7.10;99.90
20594;DHT22;10455;48.732;10.266;2023-11-21T22:58:41;7.00;99.90
20594;DHT22;10455;48.732;10.266;2023-11-21T23:03:44;7.00;99.90
20594;DHT22;10455;48.732;10.266;2023-11-21T23:08:47;7.20;99.90
20594;DHT22;10455;48.732;10.266;2023-11-21T23:13:49;7.30;99.90
20594;DHT22;10455;48.732;10.266;2023-11-21T23:18:51;7.40;99.90
20594;DHT22;10455;48.732;10.266;2023-11-21T23:23:54;7.40;99.90
20594;DHT22;10455;48.732;10.266;2023-11-21T23:28:57;7.50;99.90
20594;DHT22;10455;48.732;10.266;2023-11-21T23:33:59;7.30;99.90
20594;DHT22;10455;48.732;10.266;2023-11-21T23:39:02;7.10;99.90
20594;DHT22;10455;48.732;10.266;2023-11-21T23:44:06;7.20;99.90
20594;DHT22;10455;48.732;10.266;2023-11-21T23:49:07;7.30;99.90
20594;DHT22;10455;48.732;10.266;2023-11-21T23:54:11;7.30;99.90
20594;DHT22;10455;48.732;10.266;2023-11-21T23:59:13;6.50;99.90
